Time;durP1;ratioP1;P1;durP2;ratioP2;P2;SDS_P1;SDS_P2;PMS_P1;PMS_P2;Temp;Humidity;BMP_temperature;BMP_pressure;BME280_temperature;BME280_humidity;BME280_pressure;Samples;Min_cycle;Max_cycle;Signal;HPM_P1;HPM_P2
2021/07/19 00:02:22;;;;;;;;;;;24.00;75.80;;;;;;5081624;28;20015;-65
2021/07/19 00:04:49;;;;;;;;;;;24.00;75.50;;;;;;5085781;28;19950;-66
2021/07/19 00:07:15;;;;;;;;;;;24.00;76.10;;;;;;5086839;28;19962;-65
2021/07/19 00:09:45;;;;;;;;;;;23.90;76.10;;;;;;5078818;28;20015;-64
2021/07/19 00:12:13;;;;;;;;;;;24.00;76.10;;;;;;5081559;28;19956;-65
2021/07/19 00:14:40;;;;;;;;;;;24.00;76.40;;;;;;5088267;28;20433;-65
2021/07/19 00:17:07;;;;;;;;;;;24.00;76.40;;;;;;5086037;28;19938;-66
2021/07/19 00:19:33;;;;;;;;;;;24.00;76.30;;;;;;5077846;28;20050;-65
2021/07/19 00:22:00;;;;;;;;;;;24.00;76.50;;;;;;5082303;28;20015;-66
2021/07/19 00:24:27;;;;;;;;;;;24.00;76.30;;;;;;5084121;28;19929;-66
2021/07/19 00:26:54;;;;;;;;;;;24.00;76.10;;;;;;5088233;28;20629;-65
2021/07/19 00:29:20;;;;;;;;;;;23.90;76.10;;;;;;5087253;28;19958;-64
2021/07/19 00:31:47;;;;;;;;;;;24.00;76.30;;;;;;5086595;28;20027;-66
2021/07/19 00:34:13;;;;;;;;;;;23.90;75.90;;;;;;5084834;28;20028;-64
2021/07/19 00:36:40;;;;;;;;;;;23.90;76.60;;;;;;5083477;28;19930;-65
2021/07/19 00:39:08;;;;;;;;;;;23.90;76.50;;;;;;5079197;28;20343;-65
2021/07/19 00:41:35;;;;;;;;;;;23.90;76.30;;;;;;5082142;28;19970;-66
2021/07/19 00:44:02;;;;;;;;;;;23.90;75.90;;;;;;5080238;28;20020;-65
2021/07/19 00:46:28;;;;;;;;;;;23.90;76.40;;;;;;5081244;28;19963;-65
2021/07/19 00:48:55;;;;;;;;;;;23.90;76.50;;;;;;5079146;28;20020;-65
2021/07/19 00:51:22;;;;;;;;;;;23.90;76.00;;;;;;5078037;28;20026;-64
2021/07/19 00:53:49;;;;;;;;;;;23.90;76.30;;;;;;5090239;28;20019;-64
2021/07/19 00:56:16;;;;;;;;;;;23.90;76.60;;;;;;5081165;28;19967;-65
2021/07/19 00:58:47;;;;;;;;;;;23.90;76.70;;;;;;5084101;28;20011;-65
2021/07/19 01:01:14;;;;;;;;;;;23.90;76.50;;;;;;5078307;28;20590;-65
2021/07/19 01:03:42;;;;;;;;;;;23.80;76.10;;;;;;5079635;28;19970;-64
2021/07/19 01:06:10;;;;;;;;;;;23.80;76.10;;;;;;5076865;28;19974;-65
2021/07/19 01:08:37;;;;;;;;;;;23.80;76.80;;;;;;5086315;27;19963;-64
2021/07/19 01:11:04;;;;;;;;;;;23.80;76.80;;;;;;5081337;28;19974;-65
2021/07/19 01:13:30;;;;;;;;;;;23.80;76.30;;;;;;5083272;28;20010;-65
2021/07/19 01:15:57;;;;;;;;;;;23.80;76.80;;;;;;5076108;28;19928;-65
2021/07/19 01:18:24;;;;;;;;;;;23.80;76.30;;;;;;5087734;28;19966;-65
2021/07/19 01:20:57;;;;;;;;;;;23.80;76.30;;;;;;5088293;28;20712;-64
2021/07/19 01:23:29;;;;;;;;;;;23.80;76.60;;;;;;5087415;27;20019;-66
2021/07/19 01:26:11;;;;;;;;;;;23.80;76.30;;;;;;5074531;28;20015;-65
2021/07/19 01:28:42;;;;;;;;;;;23.80;76.60;;;;;;5079710;28;20447;-65
2021/07/19 01:31:18;;;;;;;;;;;23.80;76.60;;;;;;5077291;28;20370;-64
2021/07/19 01:33:46;;;;;;;;;;;23.80;76.50;;;;;;5081849;28;19965;-65
2021/07/19 01:36:19;;;;;;;;;;;23.80;76.10;;;;;;5081048;28;20012;-65
2021/07/19 01:38:46;;;;;;;;;;;23.80;76.60;;;;;;5079871;27;20025;-66
2021/07/19 01:41:17;;;;;;;;;;;23.70;76.80;;;;;;5086066;28;20378;-66
2021/07/19 01:43:45;;;;;;;;;;;23.80;76.50;;;;;;5088611;28;20395;-65
2021/07/19 01:46:13;;;;;;;;;;;23.80;76.90;;;;;;5092091;28;19966;-64
2021/07/19 01:48:40;;;;;;;;;;;23.80;76.80;;;;;;5089798;28;19924;-64
2021/07/19 01:51:07;;;;;;;;;;;23.80;76.70;;;;;;5076223;28;20031;-65
2021/07/19 01:53:34;;;;;;;;;;;23.70;76.60;;;;;;5088013;28;20019;-65
2021/07/19 01:56:01;;;;;;;;;;;23.70;76.60;;;;;;5084359;28;20372;-65
2021/07/19 01:58:28;;;;;;;;;;;23.70;76.60;;;;;;5078048;28;20375;-64
2021/07/19 02:00:55;;;;;;;;;;;23.70;76.70;;;;;;5090674;28;19971;-64
2021/07/19 02:03:22;;;;;;;;;;;23.70;76.30;;;;;;5087430;28;19925;-65
2021/07/19 02:05:50;;;;;;;;;;;23.70;76.80;;;;;;5086571;28;19932;-65
2021/07/19 02:08:17;;;;;;;;;;;23.70;76.70;;;;;;5074157;28;20418;-65
2021/07/19 02:10:54;;;;;;;;;;;23.70;76.30;;;;;;5083310;28;20015;-65
2021/07/19 02:13:21;;;;;;;;;;;23.70;76.80;;;;;;5076216;28;19960;-65
2021/07/19 02:15:49;;;;;;;;;;;23.60;76.50;;;;;;5088755;28;19931;-66
2021/07/19 02:18:17;;;;;;;;;;;23.70;76.80;;;;;;5087604;28;19947;-66
2021/07/19 02:20:44;;;;;;;;;;;23.70;76.90;;;;;;5086707;28;19964;-66
2021/07/19 02:23:13;;;;;;;;;;;23.70;76.70;;;;;;5086200;28;20003;-64
2021/07/19 02:25:40;;;;;;;;;;;23.70;76.80;;;;;;5083216;27;20018;-65
2021/07/19 02:28:09;;;;;;;;;;;23.60;76.80;;;;;;5078457;28;20046;-69
2021/07/19 02:30:36;;;;;;;;;;;23.60;76.60;;;;;;5085250;28;20050;-65
2021/07/19 02:33:03;;;;;;;;;;;23.60;76.90;;;;;;5089204;28;20010;-64
2021/07/19 02:35:31;;;;;;;;;;;23.60;76.80;;;;;;5085277;28;19967;-64
2021/07/19 02:37:59;;;;;;;;;;;23.60;77.00;;;;;;5080187;28;19970;-65
2021/07/19 02:40:26;;;;;;;;;;;23.60;76.80;;;;;;5085074;28;20003;-65
2021/07/19 02:42:57;;;;;;;;;;;23.60;76.60;;;;;;5076153;27;19975;-64
2021/07/19 02:45:25;;;;;;;;;;;23.60;76.80;;;;;;5077482;28;19967;-64
2021/07/19 02:47:52;;;;;;;;;;;23.50;76.20;;;;;;5084282;28;20007;-64
2021/07/19 02:50:23;;;;;;;;;;;23.60;76.70;;;;;;5085240;28;19975;-64
2021/07/19 02:52:51;;;;;;;;;;;23.60;76.40;;;;;;5079735;28;20763;-66
2021/07/19 02:55:18;;;;;;;;;;;23.60;76.30;;;;;;5078871;28;19995;-69
2021/07/19 02:57:45;;;;;;;;;;;23.50;76.50;;;;;;5076741;27;19931;-69
2021/07/19 03:00:13;;;;;;;;;;;23.50;76.30;;;;;;5086470;28;20186;-69
2021/07/19 03:02:41;;;;;;;;;;;23.50;76.50;;;;;;5083848;28;19990;-69
2021/07/19 03:05:09;;;;;;;;;;;23.50;76.30;;;;;;5074771;28;19970;-69
2021/07/19 03:07:37;;;;;;;;;;;23.50;75.80;;;;;;5079612;28;20017;-69
2021/07/19 03:10:08;;;;;;;;;;;23.60;76.40;;;;;;5078401;28;19924;-70
2021/07/19 03:12:36;;;;;;;;;;;23.40;76.10;;;;;;5077939;28;20039;-69
2021/07/19 03:15:03;;;;;;;;;;;23.50;76.30;;;;;;5072937;27;19928;-70
2021/07/19 03:17:31;;;;;;;;;;;23.50;76.80;;;;;;5083810;28;20438;-68
2021/07/19 03:19:58;;;;;;;;;;;23.40;76.70;;;;;;5084115;28;19925;-65
2021/07/19 03:22:26;;;;;;;;;;;23.40;76.70;;;;;;5080911;28;19930;-64
2021/07/19 03:24:54;;;;;;;;;;;23.40;76.50;;;;;;5073902;28;19963;-65
2021/07/19 03:27:21;;;;;;;;;;;23.40;76.70;;;;;;5082891;28;19971;-64
2021/07/19 03:29:49;;;;;;;;;;;23.50;77.00;;;;;;5075810;28;20374;-65
2021/07/19 03:32:17;;;;;;;;;;;23.50;77.00;;;;;;5079780;28;19924;-65
2021/07/19 03:34:44;;;;;;;;;;;23.50;76.70;;;;;;5084931;28;20010;-65
2021/07/19 03:37:11;;;;;;;;;;;23.50;76.90;;;;;;5080474;28;19983;-70
2021/07/19 03:39:38;;;;;;;;;;;23.50;76.90;;;;;;5086355;28;19955;-70
2021/07/19 03:42:05;;;;;;;;;;;23.50;77.00;;;;;;5084656;28;19990;-70
2021/07/19 03:44:34;;;;;;;;;;;23.50;76.90;;;;;;5085936;28;20387;-69
2021/07/19 03:47:01;;;;;;;;;;;23.40;77.00;;;;;;5120373;27;19979;-70
2021/07/19 03:49:30;;;;;;;;;;;23.40;77.10;;;;;;5093865;28;19967;-70
2021/07/19 03:51:57;;;;;;;;;;;23.40;76.80;;;;;;5089280;28;19979;-70
2021/07/19 03:54:23;;;;;;;;;;;23.40;76.80;;;;;;5085707;28;20015;-69
2021/07/19 03:56:50;;;;;;;;;;;23.40;77.10;;;;;;5083507;28;20531;-69
2021/07/19 03:59:19;;;;;;;;;;;23.40;77.20;;;;;;5090896;28;19970;-69
2021/07/19 04:01:47;;;;;;;;;;;23.40;76.90;;;;;;5082263;28;20419;-70
2021/07/19 04:04:19;;;;;;;;;;;23.40;76.30;;;;;;5083973;28;19932;-69
2021/07/19 04:06:46;;;;;;;;;;;23.40;77.00;;;;;;5087027;28;19956;-69
2021/07/19 04:09:13;;;;;;;;;;;23.40;77.20;;;;;;5093798;28;19939;-69
2021/07/19 04:11:40;;;;;;;;;;;23.40;76.70;;;;;;5080347;28;20366;-64
2021/07/19 04:14:09;;;;;;;;;;;23.40;76.70;;;;;;5087476;28;19928;-64
2021/07/19 04:16:36;;;;;;;;;;;23.40;76.90;;;;;;5084617;28;19924;-70
2021/07/19 04:19:03;;;;;;;;;;;23.40;76.70;;;;;;5088304;28;19977;-70
2021/07/19 04:21:31;;;;;;;;;;;23.40;76.80;;;;;;5092999;28;20615;-69
2021/07/19 04:23:58;;;;;;;;;;;23.40;76.90;;;;;;5086042;28;20034;-70
2021/07/19 04:26:26;;;;;;;;;;;23.40;76.80;;;;;;5098362;28;20117;-69
2021/07/19 04:28:53;;;;;;;;;;;23.40;76.30;;;;;;5092206;28;19974;-70
2021/07/19 04:31:20;;;;;;;;;;;23.40;76.50;;;;;;5088998;28;19978;-70
2021/07/19 04:33:47;;;;;;;;;;;23.40;76.60;;;;;;5080213;28;19924;-70
2021/07/19 04:36:15;;;;;;;;;;;23.40;76.40;;;;;;5089237;28;20327;-69
2021/07/19 04:38:43;;;;;;;;;;;23.40;76.30;;;;;;5090366;28;20014;-70
2021/07/19 04:41:09;;;;;;;;;;;23.40;76.10;;;;;;5094424;28;19967;-70
2021/07/19 04:43:36;;;;;;;;;;;23.40;76.10;;;;;;5096094;28;20026;-70
2021/07/19 04:46:03;;;;;;;;;;;23.40;76.30;;;;;;5091352;28;19934;-70
2021/07/19 04:48:30;;;;;;;;;;;23.30;75.80;;;;;;5081271;28;19956;-70
2021/07/19 04:50:56;;;;;;;;;;;23.30;76.30;;;;;;5087074;28;20004;-70
2021/07/19 04:53:23;;;;;;;;;;;23.30;76.00;;;;;;5090478;28;20010;-70
2021/07/19 04:55:52;;;;;;;;;;;23.30;76.30;;;;;;5089786;28;20415;-70
2021/07/19 04:58:21;;;;;;;;;;;23.30;75.40;;;;;;5073984;28;19963;-70
2021/07/19 05:00:52;;;;;;;;;;;23.30;76.00;;;;;;5084550;28;19970;-69
2021/07/19 05:03:22;;;;;;;;;;;23.30;76.10;;;;;;5077985;28;19982;-69
2021/07/19 05:05:49;;;;;;;;;;;23.30;76.00;;;;;;5080028;28;19962;-69
2021/07/19 05:08:20;;;;;;;;;;;23.30;76.00;;;;;;5075738;28;20460;-69
2021/07/19 05:10:48;;;;;;;;;;;23.30;75.80;;;;;;5086221;28;19928;-70
2021/07/19 05:13:15;;;;;;;;;;;23.30;75.60;;;;;;5085459;28;20389;-69
2021/07/19 05:15:42;;;;;;;;;;;23.30;75.80;;;;;;5084512;28;19981;-66
2021/07/19 05:18:09;;;;;;;;;;;23.30;75.70;;;;;;5082579;28;19972;-65
2021/07/19 05:20:37;;;;;;;;;;;23.30;75.70;;;;;;5081246;28;19928;-66
2021/07/19 05:23:04;;;;;;;;;;;23.30;75.00;;;;;;5092399;28;20361;-65
2021/07/19 05:25:31;;;;;;;;;;;23.30;75.10;;;;;;5084889;28;20366;-66
2021/07/19 05:27:58;;;;;;;;;;;23.30;75.40;;;;;;5081781;28;20026;-70
2021/07/19 05:30:25;;;;;;;;;;;23.40;75.70;;;;;;5077829;28;19947;-69
2021/07/19 05:32:52;;;;;;;;;;;23.40;75.70;;;;;;5083285;28;19924;-69
2021/07/19 05:35:19;;;;;;;;;;;23.40;75.80;;;;;;5079092;28;19924;-70
2021/07/19 05:37:46;;;;;;;;;;;23.40;75.70;;;;;;5081825;28;19963;-70
2021/07/19 05:40:13;;;;;;;;;;;23.40;75.40;;;;;;5085393;28;19952;-69
2021/07/19 05:42:41;;;;;;;;;;;23.40;75.60;;;;;;5087176;28;20048;-70
2021/07/19 05:45:08;;;;;;;;;;;23.30;75.70;;;;;;5078795;28;20019;-70
2021/07/19 05:47:36;;;;;;;;;;;23.30;75.60;;;;;;5083342;28;19970;-70
2021/07/19 05:50:04;;;;;;;;;;;23.30;75.40;;;;;;5077196;28;20062;-70
2021/07/19 05:52:31;;;;;;;;;;;23.30;75.70;;;;;;5083038;28;20014;-70
2021/07/19 05:54:58;;;;;;;;;;;23.20;75.70;;;;;;5073952;28;19967;-70
2021/07/19 05:57:25;;;;;;;;;;;23.20;76.60;;;;;;5083726;28;19971;-69
2021/07/19 05:59:56;;;;;;;;;;;23.20;76.10;;;;;;5082831;28;20019;-71
2021/07/19 06:02:27;;;;;;;;;;;23.20;75.80;;;;;;5080246;28;20022;-70
2021/07/19 06:04:54;;;;;;;;;;;23.20;76.20;;;;;;5085106;28;19928;-70
2021/07/19 06:07:21;;;;;;;;;;;23.30;76.40;;;;;;5082910;28;19960;-69
2021/07/19 06:09:48;;;;;;;;;;;23.30;76.50;;;;;;5083852;28;19971;-69
2021/07/19 06:12:15;;;;;;;;;;;23.30;76.10;;;;;;5082140;28;19924;-70
2021/07/19 06:14:41;;;;;;;;;;;23.30;76.50;;;;;;5080233;28;19962;-70
2021/07/19 06:17:08;;;;;;;;;;;23.30;76.50;;;;;;5076883;28;19932;-69
2021/07/19 06:19:35;;;;;;;;;;;23.30;76.40;;;;;;5080906;28;19971;-70
2021/07/19 06:22:03;;;;;;;;;;;23.40;76.60;;;;;;5077725;28;20379;-70
2021/07/19 06:24:30;;;;;;;;;;;23.30;76.40;;;;;;5076988;28;19969;-71
2021/07/19 06:26:56;;;;;;;;;;;23.30;76.80;;;;;;5075751;28;19978;-70
2021/07/19 06:29:23;;;;;;;;;;;23.30;76.80;;;;;;5083021;28;19928;-70
2021/07/19 06:31:50;;;;;;;;;;;23.30;76.80;;;;;;5080146;28;20010;-70
2021/07/19 06:34:16;;;;;;;;;;;23.30;76.80;;;;;;5083483;28;19924;-70
2021/07/19 06:36:43;;;;;;;;;;;23.30;77.00;;;;;;5084221;28;19971;-68
2021/07/19 06:39:10;;;;;;;;;;;23.40;77.10;;;;;;5086569;27;19974;-70
2021/07/19 06:41:36;;;;;;;;;;;23.40;76.80;;;;;;5078715;28;19964;-70
2021/07/19 06:44:03;;;;;;;;;;;23.40;76.70;;;;;;5080731;28;19967;-70
2021/07/19 06:46:30;;;;;;;;;;;23.50;76.80;;;;;;5075336;28;20413;-70
2021/07/19 06:48:56;;;;;;;;;;;23.50;76.80;;;;;;5081916;28;19928;-70
2021/07/19 06:51:23;;;;;;;;;;;23.50;77.00;;;;;;5073167;28;20030;-70
2021/07/19 06:53:50;;;;;;;;;;;23.50;77.00;;;;;;5083494;28;19928;-69
2021/07/19 06:56:17;;;;;;;;;;;23.50;77.00;;;;;;5078540;28;20032;-70
2021/07/19 06:58:43;;;;;;;;;;;23.50;77.10;;;;;;5079010;28;20023;-70
2021/07/19 07:01:10;;;;;;;;;;;23.50;77.30;;;;;;5085944;28;20050;-70
2021/07/19 07:03:37;;;;;;;;;;;23.40;77.20;;;;;;5073362;28;19978;-70
2021/07/19 07:06:23;;;;;;;;;;;23.40;77.40;;;;;;5086605;28;19932;-70
2021/07/19 07:08:50;;;;;;;;;;;23.40;77.40;;;;;;5075479;28;20019;-70
2021/07/19 07:11:17;;;;;;;;;;;23.40;77.60;;;;;;5085885;28;20043;-68
2021/07/19 07:13:43;;;;;;;;;;;23.40;77.60;;;;;;5078693;28;20011;-69
2021/07/19 07:16:10;;;;;;;;;;;23.40;77.60;;;;;;5084221;28;20376;-70
2021/07/19 07:18:37;;;;;;;;;;;23.50;77.50;;;;;;5075380;28;20015;-70
2021/07/19 07:21:03;;;;;;;;;;;23.40;77.40;;;;;;5081530;28;19927;-70
2021/07/19 07:23:30;;;;;;;;;;;23.40;77.60;;;;;;5074528;28;20003;-70
2021/07/19 07:25:57;;;;;;;;;;;23.40;77.80;;;;;;5079893;27;19997;-70
2021/07/19 07:28:24;;;;;;;;;;;23.40;77.70;;;;;;5084974;28;19962;-70
2021/07/19 07:30:50;;;;;;;;;;;23.40;77.80;;;;;;5078493;28;20011;-70
2021/07/19 07:33:17;;;;;;;;;;;23.40;77.80;;;;;;5075109;28;19924;-70
2021/07/19 07:35:45;;;;;;;;;;;23.40;77.80;;;;;;5081132;28;19964;-70
2021/07/19 07:38:11;;;;;;;;;;;23.50;77.90;;;;;;5082374;28;20004;-70
2021/07/19 07:40:38;;;;;;;;;;;23.40;77.90;;;;;;5084333;28;20015;-69
2021/07/19 07:43:05;;;;;;;;;;;23.40;78.00;;;;;;5082451;28;20007;-71
2021/07/19 07:45:31;;;;;;;;;;;23.40;78.30;;;;;;5076140;28;19924;-70
2021/07/19 07:47:58;;;;;;;;;;;23.50;78.30;;;;;;5079367;28;20023;-71
2021/07/19 07:50:25;;;;;;;;;;;23.50;78.40;;;;;;5079027;28;19959;-71
2021/07/19 07:52:51;;;;;;;;;;;23.50;78.40;;;;;;5080652;28;20279;-69
2021/07/19 07:55:18;;;;;;;;;;;23.50;78.60;;;;;;5078600;28;20089;-70
2021/07/19 07:57:45;;;;;;;;;;;23.50;78.60;;;;;;5071221;28;20021;-69
2021/07/19 08:00:16;;;;;;;;;;;23.50;78.70;;;;;;5072947;28;20573;-65
2021/07/19 08:02:44;;;;;;;;;;;23.50;78.60;;;;;;5087003;28;20028;-65
2021/07/19 08:05:11;;;;;;;;;;;23.50;78.70;;;;;;5093557;28;20880;-64
2021/07/19 08:07:39;;;;;;;;;;;23.50;78.90;;;;;;5091589;28;19978;-65
2021/07/19 08:10:06;;;;;;;;;;;23.50;78.80;;;;;;5086022;28;20370;-65
2021/07/19 08:12:33;;;;;;;;;;;23.50;79.00;;;;;;5073909;28;19930;-64
2021/07/19 08:15:03;;;;;;;;;;;23.50;78.90;;;;;;5074759;28;19968;-63
2021/07/19 08:17:30;;;;;;;;;;;23.50;80.80;;;;;;5073134;28;20362;-63
2021/07/19 08:19:57;;;;;;;;;;;23.50;80.80;;;;;;5081792;28;19963;-63
2021/07/19 08:22:25;;;;;;;;;;;23.60;80.80;;;;;;5078311;28;20014;-63
2021/07/19 08:24:51;;;;;;;;;;;23.60;82.30;;;;;;5074718;28;19924;-64
2021/07/19 08:27:18;;;;;;;;;;;23.60;82.10;;;;;;5079806;28;20027;-64
2021/07/19 08:29:45;;;;;;;;;;;23.60;81.60;;;;;;5082891;28;19963;-65
2021/07/19 08:32:14;;;;;;;;;;;23.60;81.60;;;;;;5077073;28;20016;-64
2021/07/19 08:34:41;;;;;;;;;;;23.60;82.00;;;;;;5084235;28;19928;-64
2021/07/19 08:37:08;;;;;;;;;;;23.60;82.00;;;;;;5076595;28;20007;-69
2021/07/19 08:39:35;;;;;;;;;;;23.70;82.60;;;;;;5108345;27;20011;-64
2021/07/19 08:42:02;;;;;;;;;;;23.70;83.00;;;;;;5085045;28;20015;-64
2021/07/19 08:44:29;;;;;;;;;;;23.70;83.40;;;;;;5081348;28;20002;-64
2021/07/19 08:46:55;;;;;;;;;;;23.70;81.80;;;;;;5079970;28;19972;-66
2021/07/19 08:49:22;;;;;;;;;;;23.70;82.10;;;;;;5080067;28;20043;-65
2021/07/19 08:51:50;;;;;;;;;;;23.70;82.20;;;;;;5085021;28;20011;-70
2021/07/19 08:54:18;;;;;;;;;;;23.70;81.70;;;;;;5093408;28;19938;-69
2021/07/19 08:56:46;;;;;;;;;;;23.70;81.80;;;;;;5092566;28;20379;-69
2021/07/19 08:59:17;;;;;;;;;;;23.70;82.10;;;;;;5090374;28;20038;-70
2021/07/19 09:01:46;;;;;;;;;;;23.70;82.60;;;;;;5126039;27;19939;-67
2021/07/19 09:04:17;;;;;;;;;;;23.70;82.70;;;;;;5093062;28;20366;-67
2021/07/19 09:06:44;;;;;;;;;;;23.70;82.20;;;;;;5094507;28;19954;-65
2021/07/19 09:09:11;;;;;;;;;;;23.70;81.70;;;;;;5077476;28;20389;-67
2021/07/19 09:11:50;;;;;;;;;;;23.70;81.50;;;;;;5077512;28;19984;-66
2021/07/19 09:14:16;;;;;;;;;;;23.70;81.00;;;;;;5078435;27;19928;-66
2021/07/19 09:16:46;;;;;;;;;;;23.70;81.00;;;;;;5077868;28;19967;-67
2021/07/19 09:19:17;;;;;;;;;;;23.70;80.40;;;;;;5078497;28;19932;-66
2021/07/19 09:21:47;;;;;;;;;;;23.70;80.80;;;;;;5085022;28;19927;-65
2021/07/19 09:24:18;;;;;;;;;;;23.70;81.10;;;;;;5084747;28;19927;-67
2021/07/19 09:26:52;;;;;;;;;;;23.70;80.90;;;;;;5077952;28;21689;-66
2021/07/19 09:29:23;;;;;;;;;;;23.70;80.90;;;;;;5075270;28;19932;-67
2021/07/19 09:31:54;;;;;;;;;;;23.80;80.40;;;;;;5077412;28;19951;-67
2021/07/19 09:34:27;;;;;;;;;;;23.80;80.20;;;;;;5078652;28;19942;-66
2021/07/19 09:37:03;;;;;;;;;;;23.80;79.70;;;;;;5080410;28;19980;-65
2021/07/19 09:39:32;;;;;;;;;;;23.80;78.90;;;;;;5078950;28;20306;-66
2021/07/19 09:42:04;;;;;;;;;;;23.80;78.80;;;;;;5082640;28;19932;-68
2021/07/19 09:44:31;;;;;;;;;;;23.80;79.00;;;;;;5081493;28;19935;-66
2021/07/19 09:46:58;;;;;;;;;;;23.80;79.00;;;;;;5080771;28;19955;-67
2021/07/19 09:49:27;;;;;;;;;;;23.80;78.90;;;;;;5078855;28;19928;-66
2021/07/19 09:52:03;;;;;;;;;;;23.80;78.60;;;;;;5078226;28;19977;-66
2021/07/19 09:54:33;;;;;;;;;;;23.80;79.20;;;;;;5080417;28;20066;-66
2021/07/19 09:57:05;;;;;;;;;;;23.80;78.70;;;;;;5083409;28;20022;-66
2021/07/19 09:59:36;;;;;;;;;;;23.80;79.00;;;;;;5080917;28;20987;-67
2021/07/19 10:02:03;;;;;;;;;;;23.80;79.10;;;;;;5076268;28;19928;-66
2021/07/19 10:04:30;;;;;;;;;;;23.80;79.00;;;;;;5081377;28;19932;-67
2021/07/19 10:06:58;;;;;;;;;;;23.80;78.90;;;;;;5080007;28;20026;-64
2021/07/19 10:09:27;;;;;;;;;;;23.80;78.80;;;;;;5081234;28;19943;-64
2021/07/19 10:11:57;;;;;;;;;;;23.80;79.10;;;;;;5081297;28;20475;-65
2021/07/19 10:14:33;;;;;;;;;;;23.90;79.20;;;;;;5081339;28;19962;-64
2021/07/19 10:17:03;;;;;;;;;;;23.90;78.80;;;;;;5080580;28;19950;-65
2021/07/19 10:19:33;;;;;;;;;;;23.90;78.40;;;;;;5081591;28;19938;-64
2021/07/19 10:22:02;;;;;;;;;;;23.90;78.70;;;;;;5080679;28;19965;-64
2021/07/19 10:24:29;;;;;;;;;;;23.90;78.80;;;;;;5068751;28;20394;-65
2021/07/19 10:26:57;;;;;;;;;;;23.90;77.60;;;;;;5081513;28;19932;-65
2021/07/19 10:29:26;;;;;;;;;;;23.90;77.90;;;;;;5077107;28;20041;-64
2021/07/19 10:31:54;;;;;;;;;;;23.90;77.60;;;;;;5079279;28;19978;-65
2021/07/19 10:34:21;;;;;;;;;;;23.90;77.50;;;;;;5082279;28;19929;-65
2021/07/19 10:36:57;;;;;;;;;;;23.90;77.30;;;;;;5080085;28;19932;-64
2021/07/19 10:39:30;;;;;;;;;;;23.90;77.50;;;;;;5078361;28;19932;-65
2021/07/19 10:42:04;;;;;;;;;;;23.90;77.50;;;;;;5079514;28;19932;-65
2021/07/19 10:44:36;;;;;;;;;;;23.90;77.20;;;;;;5076480;28;19932;-65
2021/07/19 10:47:17;;;;;;;;;;;23.90;77.20;;;;;;5077608;28;19947;-64
2021/07/19 10:49:55;;;;;;;;;;;23.90;77.10;;;;;;5075274;28;19939;-66
2021/07/19 10:52:32;;;;;;;;;;;23.90;77.10;;;;;;5076685;28;20423;-65
2021/07/19 10:55:00;;;;;;;;;;;23.90;76.90;;;;;;5076885;28;19967;-70
2021/07/19 10:57:36;;;;;;;;;;;23.90;76.80;;;;;;5081133;28;20007;-68
2021/07/19 11:00:21;;;;;;;;;;;23.90;77.10;;;;;;5076250;28;19932;-68
2021/07/19 11:02:48;;;;;;;;;;;23.90;77.10;;;;;;5077167;28;21041;-67
2021/07/19 11:05:17;;;;;;;;;;;23.90;77.00;;;;;;5074434;28;19935;-69
2021/07/19 11:10:43;;;;;;;;;;;24.00;76.30;;;;;;5243736;22;20025;-76
2021/07/19 11:13:10;;;;;;;;;;;24.00;76.40;;;;;;5027880;28;19975;-76
2021/07/19 11:15:38;;;;;;;;;;;23.90;75.80;;;;;;5025673;28;21243;-73
2021/07/19 11:18:15;;;;;;;;;;;24.00;75.70;;;;;;5050671;28;20605;-76
2021/07/19 11:20:43;;;;;;;;;;;24.00;75.80;;;;;;5028767;28;19972;-69
2021/07/19 11:23:11;;;;;;;;;;;24.00;75.70;;;;;;5029813;28;19999;-69
2021/07/19 11:25:54;;;;;;;;;;;24.00;75.50;;;;;;5029148;28;20286;-68
2021/07/19 11:28:22;;;;;;;;;;;24.00;75.30;;;;;;5027760;28;19991;-68
2021/07/19 11:31:07;;;;;;;;;;;24.00;75.00;;;;;;5023203;28;20348;-68
2021/07/19 11:33:35;;;;;;;;;;;24.00;74.30;;;;;;5025270;28;19994;-69
2021/07/19 11:36:14;;;;;;;;;;;24.00;73.80;;;;;;5026092;28;20364;-69
2021/07/19 11:38:41;;;;;;;;;;;24.00;73.90;;;;;;5029692;28;19968;-69
2021/07/19 11:41:18;;;;;;;;;;;24.10;72.20;;;;;;5028103;28;20624;-69
2021/07/19 11:43:45;;;;;;;;;;;24.00;73.10;;;;;;5031656;28;19972;-68
2021/07/19 11:46:12;;;;;;;;;;;24.10;73.60;;;;;;5028429;28;19959;-69
2021/07/19 11:48:43;;;;;;;;;;;24.10;73.40;;;;;;5028728;28;19946;-68
2021/07/19 11:51:10;;;;;;;;;;;24.10;73.40;;;;;;5027623;28;19964;-69
2021/07/19 11:53:40;;;;;;;;;;;24.10;72.40;;;;;;5029712;28;19979;-68
2021/07/19 11:56:07;;;;;;;;;;;24.10;73.00;;;;;;5028863;28;20035;-68
2021/07/19 11:58:34;;;;;;;;;;;24.10;72.60;;;;;;5029523;28;20059;-69
2021/07/19 12:01:02;;;;;;;;;;;24.10;71.70;;;;;;5031985;28;19937;-68
2021/07/19 12:03:29;;;;;;;;;;;24.10;71.50;;;;;;5033630;28;21005;-68
2021/07/19 12:05:57;;;;;;;;;;;24.20;71.60;;;;;;5032229;28;19952;-68
2021/07/19 12:08:28;;;;;;;;;;;24.20;71.50;;;;;;5033074;28;19964;-71
2021/07/19 12:10:58;;;;;;;;;;;24.20;69.60;;;;;;5035418;28;20062;-72
2021/07/19 12:13:30;;;;;;;;;;;24.20;70.50;;;;;;5037048;28;19991;-71
2021/07/19 12:15:57;;;;;;;;;;;24.20;69.30;;;;;;5041672;28;19936;-72
2021/07/19 12:18:31;;;;;;;;;;;24.20;70.00;;;;;;5040264;28;20048;-72
2021/07/19 12:20:59;;;;;;;;;;;24.30;69.80;;;;;;5040233;28;20722;-72
2021/07/19 12:23:44;;;;;;;;;;;24.30;69.00;;;;;;5038268;28;20762;-71
2021/07/19 12:26:13;;;;;;;;;;;24.50;67.80;;;;;;5040549;28;20043;-72
2021/07/19 12:28:52;;;;;;;;;;;24.50;67.60;;;;;;5039303;28;20417;-71
2021/07/19 12:31:30;;;;;;;;;;;24.50;68.00;;;;;;5039174;28;20028;-71
2021/07/19 12:34:00;;;;;;;;;;;25.50;65.20;;;;;;5040742;28;20343;-70
2021/07/19 12:36:27;;;;;;;;;;;27.30;59.10;;;;;;5039916;28;19944;-70
2021/07/19 12:38:54;;;;;;;;;;;27.80;57.40;;;;;;5039450;28;19990;-71
2021/07/19 12:41:21;;;;;;;;;;;28.70;54.90;;;;;;5038836;28;20037;-71
2021/07/19 12:43:48;;;;;;;;;;;29.10;53.90;;;;;;5040578;28;20323;-71
2021/07/19 12:46:14;;;;;;;;;;;29.30;52.50;;;;;;5040237;28;20019;-69
2021/07/19 12:48:45;;;;;;;;;;;29.20;52.30;;;;;;5037006;28;19945;-71
2021/07/19 12:51:13;;;;;;;;;;;29.00;52.70;;;;;;5037984;28;19929;-71
2021/07/19 12:53:40;;;;;;;;;;;28.60;53.40;;;;;;5039835;28;19932;-72
2021/07/19 12:56:11;;;;;;;;;;;27.70;54.60;;;;;;5037704;28;20106;-71
2021/07/19 12:59:00;;;;;;;;;;;26.80;56.30;;;;;;5038928;28;19967;-70
2021/07/19 13:01:35;;;;;;;;;;;26.30;57.80;;;;;;5040072;28;20397;-71
2021/07/19 13:04:09;;;;;;;;;;;25.90;58.60;;;;;;5040604;28;19933;-71
2021/07/19 13:06:38;;;;;;;;;;;25.80;59.10;;;;;;5040215;28;20026;-71
2021/07/19 13:09:09;;;;;;;;;;;25.60;59.90;;;;;;5038444;28;19932;-71
2021/07/19 13:11:37;;;;;;;;;;;25.50;59.80;;;;;;5037009;28;20394;-72
2021/07/19 13:14:13;;;;;;;;;;;25.50;59.90;;;;;;5038104;28;19953;-72
2021/07/19 13:16:42;;;;;;;;;;;25.50;59.80;;;;;;5038009;28;19952;-72
2021/07/19 13:19:09;;;;;;;;;;;25.40;60.20;;;;;;5039773;28;20055;-72
2021/07/19 13:21:36;;;;;;;;;;;25.40;60.50;;;;;;5038636;28;19974;-73
2021/07/19 13:24:12;;;;;;;;;;;25.40;60.50;;;;;;5039770;28;19968;-73
2021/07/19 13:26:39;;;;;;;;;;;25.30;60.60;;;;;;5037575;28;20012;-72
2021/07/19 13:29:07;;;;;;;;;;;25.30;60.60;;;;;;5038542;28;20419;-77
2021/07/19 13:31:34;;;;;;;;;;;25.20;60.60;;;;;;5039303;28;20023;-77
2021/07/19 13:34:01;;;;;;;;;;;25.20;60.60;;;;;;5036434;28;20011;-79
2021/07/19 13:36:31;;;;;;;;;;;25.20;60.00;;;;;;5039036;28;19953;-79
2021/07/19 13:38:58;;;;;;;;;;;25.20;59.90;;;;;;5038493;28;20035;-75
2021/07/19 13:41:26;;;;;;;;;;;25.20;59.90;;;;;;5039308;28;20383;-78
2021/07/19 13:44:00;;;;;;;;;;;25.10;59.70;;;;;;5037774;28;19933;-78
2021/07/19 13:46:28;;;;;;;;;;;25.10;59.60;;;;;;5038376;28;19929;-77
2021/07/19 13:48:55;;;;;;;;;;;25.10;59.10;;;;;;5039829;28;20016;-78
2021/07/19 13:51:22;;;;;;;;;;;25.10;59.10;;;;;;5037424;28;20060;-79
2021/07/19 13:53:49;;;;;;;;;;;25.10;58.70;;;;;;5038583;28;19983;-77
2021/07/19 13:56:16;;;;;;;;;;;25.10;58.80;;;;;;5039980;28;19928;-76
2021/07/19 13:58:43;;;;;;;;;;;25.10;58.60;;;;;;5035808;28;20039;-80
2021/07/19 14:01:10;;;;;;;;;;;25.00;58.30;;;;;;5035935;28;19968;-79
2021/07/19 14:03:39;;;;;;;;;;;25.00;58.40;;;;;;5035414;28;19936;-75
2021/07/19 14:06:09;;;;;;;;;;;25.00;58.40;;;;;;5037195;28;19975;-80
2021/07/19 14:08:36;;;;;;;;;;;25.00;58.60;;;;;;5038390;28;19976;-77
2021/07/19 14:11:03;;;;;;;;;;;25.00;58.30;;;;;;5038287;28;20019;-74
2021/07/19 14:13:29;;;;;;;;;;;25.00;58.10;;;;;;5037143;28;19929;-73
2021/07/19 14:15:56;;;;;;;;;;;24.90;58.00;;;;;;5036481;28;19975;-72
2021/07/19 14:18:23;;;;;;;;;;;24.90;58.30;;;;;;5038077;28;19951;-73
2021/07/19 14:20:50;;;;;;;;;;;24.90;58.00;;;;;;5034831;28;19929;-72
2021/07/19 14:23:17;;;;;;;;;;;24.90;58.50;;;;;;5032843;28;20408;-74
2021/07/19 14:25:43;;;;;;;;;;;24.90;58.40;;;;;;5037179;28;19964;-73
2021/07/19 14:28:10;;;;;;;;;;;24.90;57.70;;;;;;5035492;28;19929;-73